Time;durP1;ratioP1;P1;durP2;ratioP2;P2;SDS_P1;SDS_P2;PMS_P1;PMS_P2;Temp;Humidity;BMP_temperature;BMP_pressure;BME280_temperature;BME280_humidity;BME280_pressure;Samples;Min_cycle;Max_cycle;Signal;HPM_P1;HPM_P2
2021/04/22 00:00:16;;;;;;;20.85;11.45;;;9.80;99.90;;;;;;4835698;29;20054;-63
2021/04/22 00:02:43;;;;;;;22.30;11.15;;;9.80;99.90;;;;;;4842158;29;20061;-63
2021/04/22 00:05:17;;;;;;;21.52;10.75;;;9.60;99.90;;;;;;4858367;29;20057;-63
2021/04/22 00:07:45;;;;;;;17.48;10.07;;;9.70;99.90;;;;;;4862490;29;20113;-63
2021/04/22 00:10:13;;;;;;;23.45;12.32;;;9.60;99.90;;;;;;4859839;29;20633;-63
2021/04/22 00:12:40;;;;;;;21.13;12.40;;;9.60;99.90;;;;;;4835020;29;20074;-63
2021/04/22 00:15:14;;;;;;;23.63;12.48;;;9.60;99.90;;;;;;4847392;29;20095;-63
2021/04/22 00:17:43;;;;;;;20.35;10.30;;;9.60;99.90;;;;;;4821996;29;20576;-63
2021/04/22 00:20:10;;;;;;;20.92;10.82;;;9.60;99.90;;;;;;4856178;29;20057;-63
2021/04/22 00:22:37;;;;;;;19.38;10.43;;;9.60;99.90;;;;;;4860534;29;20109;-63
2021/04/22 00:25:04;;;;;;;19.85;9.85;;;9.60;99.90;;;;;;4861661;29;20064;-63
2021/04/22 00:27:31;;;;;;;19.48;11.00;;;9.50;99.90;;;;;;4860985;29;20057;-63
2021/04/22 00:29:57;;;;;;;20.20;10.80;;;9.50;99.90;;;;;;4857047;29;20064;-63
2021/04/22 00:32:24;;;;;;;26.50;12.00;;;9.40;99.90;;;;;;4842429;29;20457;-63
2021/04/22 00:34:50;;;;;;;33.38;14.55;;;9.50;99.90;;;;;;4850761;29;20053;-63
2021/04/22 00:37:17;;;;;;;30.00;13.75;;;9.50;99.90;;;;;;4848899;29;20054;-63
2021/04/22 00:39:43;;;;;;;24.88;12.32;;;9.50;99.90;;;;;;4843131;29;20045;-63
2021/04/22 00:42:10;;;;;;;24.58;11.75;;;9.40;99.90;;;;;;4859995;29;20053;-63
2021/04/22 00:44:38;;;;;;;25.65;11.35;;;9.40;99.90;;;;;;4841242;29;20758;-63
2021/04/22 00:47:05;;;;;;;24.20;11.60;;;9.40;99.90;;;;;;4854507;29;20413;-63
2021/04/22 00:49:31;;;;;;;20.08;10.45;;;9.40;99.90;;;;;;4851193;29;20536;-63
2021/04/22 00:51:58;;;;;;;21.83;11.32;;;9.30;99.90;;;;;;4837310;29;20497;-63
2021/04/22 00:54:25;;;;;;;21.88;11.10;;;9.30;99.90;;;;;;4834987;29;20053;-62
2021/04/22 00:56:52;;;;;;;22.65;10.95;;;9.40;99.90;;;;;;4833610;29;20454;-62
2021/04/22 00:59:18;;;;;;;22.35;11.18;;;9.40;99.90;;;;;;4846718;29;20050;-62
2021/04/22 01:01:45;;;;;;;22.30;10.82;;;9.30;99.90;;;;;;4837147;29;20058;-62
2021/04/22 01:04:12;;;;;;;22.98;11.95;;;9.30;99.90;;;;;;4851008;29;20557;-62
2021/04/22 01:06:38;;;;;;;20.83;10.65;;;9.30;99.90;;;;;;4863389;29;20406;-62
2021/04/22 01:09:06;;;;;;;22.00;11.48;;;9.30;99.90;;;;;;4866266;29;20115;-62
2021/04/22 01:11:33;;;;;;;21.60;11.88;;;9.40;99.90;;;;;;4859829;29;20053;-63
2021/04/22 01:13:59;;;;;;;19.30;10.57;;;9.40;99.90;;;;;;4839169;29;20042;-63
2021/04/22 01:16:26;;;;;;;22.83;11.20;;;9.30;99.90;;;;;;4840619;29;20069;-63
2021/04/22 01:18:52;;;;;;;23.40;11.15;;;9.30;99.90;;;;;;4843015;29;20046;-63
2021/04/22 01:21:26;;;;;;;23.55;12.68;;;9.20;99.90;;;;;;4845059;29;20053;-63
2021/04/22 01:23:54;;;;;;;22.00;11.13;;;9.20;99.90;;;;;;4867530;29;20053;-63
2021/04/22 01:26:25;;;;;;;20.17;11.57;;;9.30;99.90;;;;;;4844804;29;20056;-63
2021/04/22 01:28:52;;;;;;;24.70;12.02;;;9.30;99.90;;;;;;4843670;29;20073;-63
2021/04/22 01:31:20;;;;;;;19.50;11.32;;;9.30;99.90;;;;;;4859358;29;20056;-63
2021/04/22 01:33:47;;;;;;;24.60;11.15;;;9.30;99.90;;;;;;4867661;29;20053;-63
2021/04/22 01:36:13;;;;;;;20.10;10.88;;;9.30;99.90;;;;;;4847090;29;20053;-63
2021/04/22 01:38:40;;;;;;;21.90;12.00;;;9.40;99.90;;;;;;4830837;29;20057;-63
2021/04/22 01:41:07;;;;;;;22.25;10.82;;;9.30;99.90;;;;;;4845144;29;20054;-63
2021/04/22 01:43:35;;;;;;;22.85;12.35;;;9.40;99.90;;;;;;4835366;29;20060;-63
2021/04/22 01:46:01;;;;;;;24.42;11.48;;;9.50;99.90;;;;;;4828382;29;20050;-63
2021/04/22 01:48:28;;;;;;;25.85;12.25;;;9.50;99.90;;;;;;4841501;29;20046;-63
2021/04/22 01:50:55;;;;;;;23.75;11.35;;;9.50;99.90;;;;;;4842860;29;20042;-63
2021/04/22 01:53:22;;;;;;;22.08;11.23;;;9.50;99.90;;;;;;4842071;29;20102;-63
2021/04/22 01:55:50;;;;;;;20.40;10.38;;;9.50;99.90;;;;;;4834508;29;20073;-63
2021/04/22 01:58:21;;;;;;;24.80;11.10;;;9.40;99.90;;;;;;4839296;29;20071;-63
2021/04/22 02:00:54;;;;;;;21.30;11.38;;;9.60;99.90;;;;;;4841906;29;20510;-63
2021/04/22 02:03:20;;;;;;;;;;;9.50;99.90;;;;;;4853839;29;20049;-63
2021/04/22 02:05:47;;;;;;;22.50;12.05;;;9.40;99.90;;;;;;4842227;29;19935;-63
2021/04/22 02:08:15;;;;;;;24.40;11.30;;;9.30;99.90;;;;;;4844179;29;20058;-63
2021/04/22 02:10:42;;;;;;;22.30;12.02;;;9.00;99.90;;;;;;4838861;29;20053;-63
2021/04/22 02:13:11;;;;;;;25.83;12.30;;;9.00;99.90;;;;;;4848372;29;20148;-63
2021/04/22 02:15:39;;;;;;;27.98;13.50;;;8.70;99.90;;;;;;4837377;29;20100;-63
2021/04/22 02:18:06;;;;;;;24.58;11.93;;;8.80;99.90;;;;;;4838405;29;20053;-63
2021/04/22 02:20:33;;;;;;;23.00;12.07;;;8.70;99.90;;;;;;4846502;29;20038;-63
2021/04/22 02:23:00;;;;;;;27.20;13.30;;;8.80;99.90;;;;;;4837587;29;20050;-63
2021/04/22 02:25:28;;;;;;;25.17;12.20;;;8.90;99.90;;;;;;4838525;29;20757;-63
2021/04/22 02:27:56;;;;;;;24.52;12.20;;;8.90;99.90;;;;;;4840186;29;20808;-63
2021/04/22 02:30:32;;;;;;;24.20;12.43;;;9.00;99.90;;;;;;4838979;29;20047;-63
2021/04/22 02:33:00;;;;;;;23.40;11.52;;;9.10;99.90;;;;;;4845897;29;20094;-63
2021/04/22 02:35:30;;;;;;;28.88;11.98;;;9.10;99.90;;;;;;4820312;29;20038;-63
2021/04/22 02:37:58;;;;;;;24.60;12.13;;;9.10;99.90;;;;;;4841218;29;20082;-63
2021/04/22 02:40:28;;;;;;;20.95;11.23;;;9.20;99.90;;;;;;4841800;29;20110;-63
2021/04/22 02:42:57;;;;;;;23.58;12.20;;;9.10;99.90;;;;;;4847898;29;20410;-63
2021/04/22 02:45:29;;;;;;;21.42;11.80;;;9.10;99.90;;;;;;4844738;29;20054;-63
2021/04/22 02:47:57;;;;;;;21.38;11.27;;;9.10;99.90;;;;;;4832233;29;20042;-63
2021/04/22 02:50:26;;;;;;;21.52;10.63;;;9.00;99.90;;;;;;4841713;29;20046;-63
2021/04/22 02:52:53;;;;;;;25.38;12.05;;;8.90;99.90;;;;;;4820524;29;20094;-63
2021/04/22 02:55:20;;;;;;;22.48;11.30;;;8.90;99.90;;;;;;4838676;29;20125;-63
2021/04/22 02:58:07;;;;;;;19.98;10.27;;;8.90;99.90;;;;;;4835401;29;20079;-63
2021/04/22 03:00:33;;;;;;;22.52;11.15;;;8.80;99.90;;;;;;4850560;29;20053;-63
2021/04/22 03:03:00;;;;;;;22.15;11.40;;;8.70;99.90;;;;;;4846257;29;20043;-63
2021/04/22 03:05:27;;;;;;;21.15;10.30;;;8.70;99.90;;;;;;4827292;29;20058;-63
2021/04/22 03:07:54;;;;;;;20.65;10.32;;;8.60;99.90;;;;;;4851187;29;20046;-63
2021/04/22 03:10:22;;;;;;;23.10;11.63;;;8.70;99.90;;;;;;4843424;29;20050;-63
2021/04/22 03:12:49;;;;;;;21.40;11.23;;;8.40;99.90;;;;;;4839610;29;20058;-63
2021/04/22 03:15:16;;;;;;;21.60;10.70;;;8.30;99.90;;;;;;4835862;29;20582;-63
2021/04/22 03:17:44;;;;;;;25.15;11.85;;;8.20;99.90;;;;;;4846143;29;20034;-63
2021/04/22 03:20:13;;;;;;;22.98;11.48;;;8.40;99.90;;;;;;4841971;29;20062;-63
2021/04/22 03:22:40;;;;;;;20.63;10.60;;;8.50;99.90;;;;;;4844419;29;20486;-63
2021/04/22 03:25:09;;;;;;;21.70;11.30;;;8.60;99.90;;;;;;4841527;29;20068;-63
2021/04/22 03:27:36;;;;;;;26.90;12.32;;;8.60;99.90;;;;;;4836100;29;20098;-63
2021/04/22 03:30:05;;;;;;;25.30;11.43;;;8.60;99.90;;;;;;4843115;29;20054;-63
2021/04/22 03:32:31;;;;;;;20.25;10.48;;;8.40;99.90;;;;;;4838161;29;20043;-63
2021/04/22 03:34:58;;;;;;;24.30;11.38;;;8.60;99.90;;;;;;4842919;29;20046;-63
2021/04/22 03:37:24;;;;;;;21.95;9.52;;;8.70;99.90;;;;;;4837417;29;20265;-63
2021/04/22 03:39:51;;;;;;;21.52;10.02;;;8.40;99.90;;;;;;4834964;29;20045;-63
2021/04/22 03:42:18;;;;;;;23.42;10.90;;;8.20;99.90;;;;;;4845998;29;20050;-62
2021/04/22 03:44:45;;;;;;;20.83;10.95;;;8.20;99.90;;;;;;4849165;29;20054;-63
2021/04/22 03:47:12;;;;;;;21.35;10.50;;;8.00;99.90;;;;;;4842312;29;20383;-63
2021/04/22 03:49:39;;;;;;;24.38;10.80;;;8.10;99.90;;;;;;4838153;29;20057;-62
2021/04/22 03:52:07;;;;;;;19.48;9.73;;;8.10;99.90;;;;;;4840708;29;20419;-63
2021/04/22 03:54:34;;;;;;;23.83;11.50;;;8.20;99.90;;;;;;4839382;29;20058;-63
2021/04/22 03:57:02;;;;;;;23.55;11.25;;;8.20;99.90;;;;;;4836748;29;20098;-63
2021/04/22 03:59:29;;;;;;;22.05;10.10;;;8.20;99.90;;;;;;4838866;29;20050;-63
2021/04/22 04:01:55;;;;;;;24.25;9.68;;;8.20;99.90;;;;;;4837885;29;20054;-63
2021/04/22 04:04:22;;;;;;;20.85;9.48;;;8.30;99.90;;;;;;4831533;29;20085;-63
2021/04/22 04:06:49;;;;;;;19.50;9.77;;;8.50;99.90;;;;;;4834371;29;20053;-63
2021/04/22 04:09:15;;;;;;;18.73;9.73;;;8.50;99.90;;;;;;4829793;29;20058;-63
2021/04/22 04:11:42;;;;;;;26.35;10.27;;;8.50;99.90;;;;;;4834112;29;20050;-62
2021/04/22 04:14:09;;;;;;;23.80;12.20;;;8.50;99.90;;;;;;4838601;29;20081;-62
2021/04/22 04:16:35;;;;;;;39.83;19.02;;;8.50;99.90;;;;;;4831327;29;20123;-62
2021/04/22 04:19:03;;;;;;;36.58;18.90;;;8.40;99.90;;;;;;4837193;29;20054;-63
2021/04/22 04:21:30;;;;;;;34.92;17.80;;;8.40;99.90;;;;;;4839153;29;20064;-63
2021/04/22 04:23:56;;;;;;;33.67;16.05;;;8.40;99.90;;;;;;4831839;29;20053;-63
2021/04/22 04:26:22;;;;;;;29.95;14.65;;;8.40;99.90;;;;;;4830008;29;20103;-63
2021/04/22 04:28:50;;;;;;;25.92;12.77;;;8.50;99.90;;;;;;4846057;29;20058;-63
2021/04/22 04:31:17;;;;;;;18.70;10.32;;;8.50;99.90;;;;;;4842309;29;20141;-63
2021/04/22 04:33:44;;;;;;;23.92;10.13;;;8.50;99.90;;;;;;4835855;29;20064;-63
2021/04/22 04:36:11;;;;;;;15.88;9.18;;;8.50;99.90;;;;;;4849373;29;20441;-63
2021/04/22 04:38:37;;;;;;;15.57;8.95;;;8.50;99.90;;;;;;4850544;29;20046;-63
2021/04/22 04:41:04;;;;;;;20.50;8.60;;;8.40;99.90;;;;;;4833741;29;20482;-63
2021/04/22 04:43:31;;;;;;;15.57;8.32;;;8.30;99.90;;;;;;4821377;29;20529;-63
2021/04/22 04:45:57;;;;;;;16.85;8.27;;;8.30;99.90;;;;;;4823430;29;20076;-63
2021/04/22 04:48:24;;;;;;;16.88;8.15;;;8.30;99.90;;;;;;4825772;29;20624;-63
2021/04/22 04:50:51;;;;;;;17.10;7.90;;;8.40;99.90;;;;;;4817752;29;20565;-63
2021/04/22 04:53:17;;;;;;;16.17;7.50;;;8.30;99.90;;;;;;4822428;29;20092;-63
2021/04/22 04:55:44;;;;;;;16.50;7.68;;;8.30;99.90;;;;;;4823986;29;20065;-63
2021/04/22 04:58:11;;;;;;;15.32;7.32;;;8.40;99.90;;;;;;4811781;29;20046;-63
2021/04/22 05:00:37;;;;;;;17.00;7.93;;;8.40;99.90;;;;;;4830547;29;20050;-62
2021/04/22 05:03:04;;;;;;;16.55;8.52;;;8.40;99.90;;;;;;4813472;29;20503;-63
2021/04/22 05:05:30;;;;;;;17.50;8.13;;;8.60;99.90;;;;;;4827662;29;20133;-63
2021/04/22 05:07:57;;;;;;;13.00;7.15;;;8.60;99.90;;;;;;4807214;29;20054;-63
2021/04/22 05:10:23;;;;;;;14.23;7.47;;;8.70;99.90;;;;;;4837080;29;20043;-63
2021/04/22 05:12:50;;;;;;;11.93;6.68;;;8.80;99.90;;;;;;4821969;29;20071;-62
2021/04/22 05:15:17;;;;;;;14.07;6.75;;;8.90;99.90;;;;;;4823398;29;20057;-63
2021/04/22 05:17:44;;;;;;;14.10;7.47;;;9.00;99.90;;;;;;4823866;29;20039;-63
2021/04/22 05:20:11;;;;;;;13.90;7.20;;;9.10;99.90;;;;;;4827589;29;20038;-63
2021/04/22 05:22:38;;;;;;;27.20;8.45;;;9.20;99.90;;;;;;4823305;29;20054;-63
2021/04/22 05:25:05;;;;;;;27.23;12.32;;;9.30;99.90;;;;;;4818918;29;20065;-63
2021/04/22 05:27:32;;;;;;;13.20;7.30;;;9.50;99.90;;;;;;4839336;29;20054;-63
2021/04/22 05:29:58;;;;;;;18.77;9.80;;;9.50;99.90;;;;;;4826381;29;20045;-63
2021/04/22 05:32:25;;;;;;;44.42;20.70;;;9.40;99.90;;;;;;4808902;29;20086;-63
2021/04/22 05:34:51;;;;;;;20.00;9.90;;;9.50;99.90;;;;;;4826275;29;20049;-63
2021/04/22 05:37:18;;;;;;;20.58;10.98;;;9.50;99.90;;;;;;4817658;29;20050;-63
2021/04/22 05:39:45;;;;;;;24.73;12.88;;;9.50;99.90;;;;;;4835780;29;20057;-63
2021/04/22 05:42:12;;;;;;;13.90;7.35;;;9.60;99.90;;;;;;4844301;29;20050;-63
2021/04/22 05:44:39;;;;;;;12.20;6.35;;;9.70;99.90;;;;;;4853341;29;20060;-63
2021/04/22 05:47:05;;;;;;;10.27;5.72;;;9.70;99.90;;;;;;4831046;29;20723;-63
2021/04/22 05:49:32;;;;;;;15.80;8.63;;;9.60;99.90;;;;;;4834367;29;20046;-63
2021/04/22 05:51:58;;;;;;;25.08;16.85;;;9.60;99.90;;;;;;4844124;29;20049;-63
2021/04/22 05:54:25;;;;;;;25.40;16.77;;;9.70;99.90;;;;;;4860377;29;20049;-63
2021/04/22 05:56:51;;;;;;;16.38;9.85;;;9.60;99.90;;;;;;4840969;29;20053;-63
2021/04/22 05:59:18;;;;;;;24.13;14.80;;;9.60;99.90;;;;;;4835951;29;20050;-63
2021/04/22 06:01:45;;;;;;;16.05;8.77;;;9.70;99.90;;;;;;4834948;29;20111;-63
2021/04/22 06:04:11;;;;;;;12.02;6.63;;;9.70;99.90;;;;;;4840926;29;20094;-62
2021/04/22 06:06:38;;;;;;;10.43;6.60;;;9.80;99.90;;;;;;4818150;29;20447;-61
2021/04/22 06:09:05;;;;;;;18.90;8.65;;;9.80;99.90;;;;;;4842422;29;20061;-61
2021/04/22 06:11:31;;;;;;;15.32;7.80;;;9.80;99.90;;;;;;4835990;29;20050;-61
2021/04/22 06:13:58;;;;;;;12.38;6.20;;;9.80;99.90;;;;;;4837178;29;20041;-61
2021/04/22 06:16:26;;;;;;;13.82;6.88;;;9.80;99.90;;;;;;4831443;29;20383;-62
2021/04/22 06:18:52;;;;;;;16.98;8.55;;;9.80;99.90;;;;;;4832575;29;20053;-62
2021/04/22 06:21:19;;;;;;;12.57;7.20;;;9.90;99.90;;;;;;4836176;29;20046;-62
2021/04/22 06:23:46;;;;;;;16.98;6.32;;;10.00;99.90;;;;;;4838052;29;20061;-62
2021/04/22 06:26:12;;;;;;;13.75;6.10;;;10.00;99.90;;;;;;4829943;29;20054;-62
2021/04/22 06:28:39;;;;;;;14.18;7.50;;;10.00;99.90;;;;;;4830815;29;20436;-61
2021/04/22 06:31:06;;;;;;;16.35;7.25;;;10.10;99.90;;;;;;4835017;29;20073;-61
2021/04/22 06:33:33;;;;;;;11.05;6.68;;;10.10;99.90;;;;;;4839527;29;20050;-61
2021/04/22 06:35:59;;;;;;;11.02;6.28;;;10.10;99.90;;;;;;4835909;29;20038;-61
2021/04/22 06:38:26;;;;;;;10.65;5.40;;;10.10;99.90;;;;;;4837006;29;20046;-61
2021/04/22 06:40:53;;;;;;;11.23;5.68;;;10.20;99.90;;;;;;4837096;29;20054;-61
2021/04/22 06:43:19;;;;;;;11.15;6.20;;;10.30;99.90;;;;;;4849924;29;20410;-61
2021/04/22 06:45:46;;;;;;;8.88;4.65;;;10.40;99.90;;;;;;4832978;29;20061;-61
2021/04/22 06:48:14;;;;;;;11.13;5.47;;;10.50;99.90;;;;;;4837301;29;20058;-61
2021/04/22 06:50:43;;;;;;;14.63;6.15;;;10.60;99.90;;;;;;4836582;29;20190;-61
2021/04/22 06:53:10;;;;;;;12.10;6.55;;;10.60;99.90;;;;;;4833787;29;20086;-61
2021/04/22 06:55:38;;;;;;;18.65;9.18;;;10.50;99.90;;;;;;4832307;29;20054;-61
2021/04/22 06:58:06;;;;;;;13.45;7.13;;;10.50;99.90;;;;;;4834366;29;20456;-61
2021/04/22 07:00:40;;;;;;;12.43;6.55;;;10.40;99.90;;;;;;4838011;29;20054;-61
2021/04/22 07:03:07;;;;;;;8.90;4.82;;;10.60;99.90;;;;;;4826299;29;20045;-62
2021/04/22 07:05:35;;;;;;;9.85;5.22;;;10.70;99.90;;;;;;4830818;29;20042;-61
2021/04/22 07:08:02;;;;;;;10.77;5.53;;;10.80;99.90;;;;;;4838009;29;20053;-61
2021/04/22 07:10:29;;;;;;;11.00;5.93;;;10.90;99.90;;;;;;4841323;29;20046;-61
2021/04/22 07:12:56;;;;;;;12.80;6.70;;;10.90;99.90;;;;;;4834472;29;20402;-61
2021/04/22 07:15:23;;;;;;;11.25;6.30;;;10.90;99.90;;;;;;4837541;29;20555;-61
2021/04/22 07:17:58;;;;;;;11.63;5.85;;;11.00;99.90;;;;;;4824698;29;20049;-61
2021/04/22 07:20:25;;;;;;;12.45;6.45;;;11.10;99.90;;;;;;4840740;29;20443;-61
2021/04/22 07:22:58;;;;;;;10.20;5.85;;;11.30;99.90;;;;;;4837106;29;20100;-61
2021/04/22 07:25:30;;;;;;;9.60;5.90;;;11.40;99.90;;;;;;4834929;29;20046;-61
2021/04/22 07:27:57;;;;;;;9.38;5.63;;;11.50;99.90;;;;;;4841506;29;20576;-61
2021/04/22 07:30:24;;;;;;;11.43;5.88;;;11.70;99.90;;;;;;4841013;29;20058;-61
2021/04/22 07:32:51;;;;;;;9.60;5.85;;;11.80;99.90;;;;;;4833412;29;20042;-61
2021/04/22 07:35:19;;;;;;;12.98;6.30;;;11.80;99.90;;;;;;4843257;29;20121;-61
2021/04/22 07:37:47;;;;;;;11.10;6.30;;;11.90;99.90;;;;;;4837729;29;20057;-61
2021/04/22 07:40:19;;;;;;;13.10;7.30;;;11.90;99.90;;;;;;4850619;29;20050;-63
2021/04/22 07:42:46;;;;;;;14.93;8.20;;;12.00;99.90;;;;;;4843434;29;20053;-62
2021/04/22 07:45:16;;;;;;;32.33;21.13;;;12.20;99.90;;;;;;4853471;29;20053;-62
2021/04/22 07:47:43;;;;;;;14.65;8.57;;;12.30;99.90;;;;;;4858658;29;20042;-62
2021/04/22 07:50:12;;;;;;;14.32;7.90;;;12.40;99.90;;;;;;4862848;29;20102;-62
2021/04/22 07:52:40;;;;;;;15.65;7.97;;;12.40;99.90;;;;;;4854345;29;20034;-62
2021/04/22 07:55:08;;;;;;;11.77;6.35;;;12.50;99.90;;;;;;4836623;29;20098;-62
2021/04/22 07:57:36;;;;;;;11.35;6.88;;;12.60;99.90;;;;;;4843170;29;20057;-62
2021/04/22 08:00:08;;;;;;;13.40;7.43;;;12.60;99.90;;;;;;4852445;29;20052;-62
2021/04/22 08:02:39;;;;;;;11.93;7.18;;;12.60;99.90;;;;;;4853172;29;20040;-62
2021/04/22 08:05:08;;;;;;;10.90;5.80;;;12.70;99.90;;;;;;4847495;29;20623;-62
2021/04/22 08:07:35;;;;;;;12.45;7.07;;;12.80;99.90;;;;;;4850173;29;20065;-62
2021/04/22 08:10:06;;;;;;;12.77;7.90;;;12.90;99.90;;;;;;4842098;29;20054;-62
2021/04/22 08:12:33;;;;;;;14.80;8.00;;;13.00;99.90;;;;;;4851645;29;20038;-62
2021/04/22 08:15:00;;;;;;;12.70;6.80;;;13.10;99.90;;;;;;4844951;29;20103;-62
2021/04/22 08:17:27;;;;;;;14.35;7.55;;;13.10;99.70;;;;;;4851143;29;20093;-62
2021/04/22 08:19:53;;;;;;;15.10;7.05;;;13.30;99.90;;;;;;4839876;29;20459;-62
2021/04/22 08:22:20;;;;;;;11.70;6.75;;;13.40;99.60;;;;;;4848387;29;20053;-62
2021/04/22 08:24:46;;;;;;;12.07;7.30;;;13.60;98.30;;;;;;4828183;29;20050;-62
2021/04/22 08:27:13;;;;;;;15.32;8.65;;;13.60;98.70;;;;;;4849255;29;20073;-66
2021/04/22 08:29:40;;;;;;;13.10;7.80;;;13.60;97.20;;;;;;4853081;29;20046;-65
2021/04/22 08:32:06;;;;;;;12.32;7.65;;;13.70;98.10;;;;;;4855467;29;20057;-64
2021/04/22 08:34:33;;;;;;;13.57;7.25;;;13.80;96.60;;;;;;4838487;29;20065;-64
2021/04/22 08:37:00;;;;;;;13.13;7.47;;;14.00;96.50;;;;;;4851545;29;20805;-65
2021/04/22 08:39:27;;;;;;;12.13;6.75;;;14.00;97.40;;;;;;4857019;29;20141;-62
2021/04/22 08:41:54;;;;;;;12.15;7.07;;;14.10;95.90;;;;;;4853269;29;20037;-62
2021/04/22 08:44:21;;;;;;;10.93;6.93;;;14.10;95.20;;;;;;4860019;29;20072;-62
2021/04/22 08:46:47;;;;;;;13.25;6.65;;;14.10;95.20;;;;;;4865132;29;20485;-62
2021/04/22 08:49:15;;;;;;;12.45;7.07;;;14.20;94.90;;;;;;4844249;29;20069;-63
2021/04/22 08:51:42;;;;;;;12.77;7.28;;;14.30;94.50;;;;;;4834791;29;20053;-66
2021/04/22 08:54:09;;;;;;;12.63;7.85;;;14.30;94.10;;;;;;4851821;29;20050;-66
2021/04/22 08:56:37;;;;;;;12.60;6.82;;;14.50;94.30;;;;;;4856571;29;20102;-67
2021/04/22 08:59:05;;;;;;;13.88;7.32;;;14.50;93.80;;;;;;4847942;29;20034;-62
2021/04/22 09:01:32;;;;;;;12.52;7.32;;;14.60;92.60;;;;;;4851607;29;20102;-66
2021/04/22 09:04:05;;;;;;;12.73;7.15;;;14.70;92.80;;;;;;4848578;29;20051;-66
2021/04/22 09:06:36;;;;;;;11.77;6.68;;;14.90;91.60;;;;;;4854420;29;20045;-68
2021/04/22 09:09:06;;;;;;;12.73;6.55;;;14.90;91.90;;;;;;4858108;29;20136;-62
2021/04/22 09:11:43;;;;;;;11.20;6.70;;;15.10;91.60;;;;;;4850824;29;20046;-61
2021/04/22 09:14:12;;;;;;;17.27;6.93;;;15.30;89.70;;;;;;4834399;29;20053;-65
2021/04/22 09:16:40;;;;;;;18.80;6.97;;;15.40;90.10;;;;;;4838161;29;20049;-66
2021/04/22 09:19:13;;;;;;;11.65;6.63;;;15.50;90.30;;;;;;4837330;29;20057;-61
2021/04/22 09:21:50;;;;;;;11.43;6.45;;;15.70;87.70;;;;;;4850179;29;20069;-67
2021/04/22 09:24:19;;;;;;;9.98;6.35;;;15.70;85.50;;;;;;4841687;29;20095;-64
2021/04/22 09:26:50;;;;;;;11.38;6.72;;;15.80;84.50;;;;;;4849424;29;20165;-66
2021/04/22 09:29:43;;;;;;;11.63;8.00;;;15.90;85.50;;;;;;4829384;29;20108;-66
2021/04/22 09:32:24;;;;;;;12.45;6.18;;;15.90;84.10;;;;;;4860092;29;20046;-66
2021/04/22 09:35:10;;;;;;;13.50;7.18;;;16.20;83.90;;;;;;4847380;29;20058;-66
2021/04/22 09:37:50;;;;;;;11.85;6.47;;;16.10;83.60;;;;;;4853222;29;20038;-66
2021/04/22 09:40:35;;;;;;;12.60;6.68;;;16.10;83.10;;;;;;4832157;29;20050;-62
2021/04/22 09:43:06;;;;;;;11.75;6.72;;;16.10;83.50;;;;;;4854579;29;20042;-62
2021/04/22 09:45:34;;;;;;;12.48;7.47;;;16.30;81.30;;;;;;4859277;29;20145;-61
2021/04/22 09:48:28;;;;;;;11.95;7.13;;;16.30;82.50;;;;;;4839095;29;20059;-62
2021/04/22 09:51:02;;;;;;;12.73;7.15;;;16.40;82.20;;;;;;4858245;29;20038;-62
2021/04/22 09:53:29;;;;;;;14.82;8.30;;;16.30;81.60;;;;;;4856162;29;20397;-62
2021/04/22 09:56:07;;;;;;;10.18;6.70;;;16.50;82.50;;;;;;4853988;29;20046;-62
2021/04/22 09:58:34;;;;;;;12.77;7.40;;;16.60;81.60;;;;;;4857438;29;20044;-62
2021/04/22 10:01:02;;;;;;;13.02;8.00;;;16.70;80.90;;;;;;4845571;29;20103;-62
2021/04/22 10:03:29;;;;;;;13.55;7.93;;;16.90;82.10;;;;;;4858608;29;20038;-62
2021/04/22 10:05:59;;;;;;;17.63;9.63;;;16.80;79.60;;;;;;4833011;29;20413;-62
2021/04/22 10:08:26;;;;;;;15.15;7.50;;;17.10;79.70;;;;;;4840414;29;20513;-62
2021/04/22 10:11:03;;;;;;;16.42;8.05;;;17.20;80.40;;;;;;4862362;29;20089;-62
2021/04/22 10:13:45;;;;;;;13.48;8.10;;;17.20;79.00;;;;;;4861760;29;20053;-62
2021/04/22 10:16:13;;;;;;;11.40;6.47;;;17.30;78.50;;;;;;4851548;29;20080;-61
2021/04/22 10:18:45;;;;;;;13.35;7.28;;;17.40;80.80;;;;;;4823851;29;20057;-61
2021/04/22 10:21:13;;;;;;;16.97;8.13;;;17.50;77.00;;;;;;4843001;29;20064;-61
2021/04/22 10:23:40;;;;;;;12.82;7.88;;;17.40;75.90;;;;;;4829528;29;20354;-61
2021/04/22 10:26:20;;;;;;;18.40;7.93;;;17.50;76.10;;;;;;4835090;29;20058;-61
2021/04/22 10:28:47;;;;;;;13.93;8.23;;;17.60;75.90;;;;;;4840452;29;20580;-61
2021/04/22 10:31:14;;;;;;;16.73;8.45;;;17.70;76.20;;;;;;4860980;29;20567;-61
2021/04/22 10:33:42;;;;;;;16.65;9.05;;;17.70;74.20;;;;;;4834567;29;20497;-61
2021/04/22 10:36:10;;;;;;;14.32;9.13;;;17.80;73.70;;;;;;4856451;29;20076;-62
2021/04/22 10:38:37;;;;;;;15.55;8.88;;;18.00;75.50;;;;;;4835935;29;20064;-62
2021/04/22 10:41:03;;;;;;;15.10;8.60;;;18.10;76.30;;;;;;4857934;29;20049;-62
2021/04/22 10:43:32;;;;;;;14.43;8.02;;;18.20;75.50;;;;;;4847903;29;20056;-62
2021/04/22 10:45:59;;;;;;;15.40;8.90;;;18.10;74.80;;;;;;4847612;29;20048;-62
2021/04/22 10:48:26;;;;;;;14.95;9.13;;;18.00;73.50;;;;;;4853134;29;20053;-62
2021/04/22 10:50:54;;;;;;;11.25;6.45;;;18.10;73.00;;;;;;4845174;29;20442;-62
2021/04/22 10:53:23;;;;;;;13.98;7.32;;;18.20;72.90;;;;;;4847075;29;20506;-62
2021/04/22 10:55:53;;;;;;;12.75;6.57;;;18.50;69.90;;;;;;4839421;29;20045;-62
2021/04/22 10:58:39;;;;;;;15.70;7.07;;;18.60;65.60;;;;;;4841141;29;20129;-62
2021/04/22 11:01:11;;;;;;;15.52;7.25;;;18.60;67.30;;;;;;4848187;29;20065;-62
2021/04/22 11:03:40;;;;;;;11.85;6.95;;;18.70;68.10;;;;;;4849462;29;20069;-62
2021/04/22 11:06:10;;;;;;;12.20;7.32;;;19.00;65.90;;;;;;4851448;29;20141;-62
2021/04/22 11:08:41;;;;;;;10.63;6.38;;;19.30;65.60;;;;;;4849419;29;20081;-62
2021/04/22 11:11:25;;;;;;;11.70;6.03;;;19.30;65.20;;;;;;4853807;29;20434;-62
2021/04/22 11:14:15;;;;;;;8.57;4.85;;;19.20;63.10;;;;;;4861378;29;20046;-62
2021/04/22 11:16:51;;;;;;;9.35;5.65;;;18.70;64.00;;;;;;4858339;29;20048;-62
2021/04/22 11:19:18;;;;;;;10.35;5.78;;;18.20;65.00;;;;;;4863371;29;20374;-62
2021/04/22 11:21:51;;;;;;;10.48;5.05;;;17.80;65.70;;;;;;4863698;29;20109;-62
2021/04/22 11:24:36;;;;;;;6.07;3.65;;;17.50;63.80;;;;;;4860287;29;20052;-62
2021/04/22 11:27:14;;;;;;;9.70;4.32;;;17.30;69.80;;;;;;4849923;29;20309;-62
2021/04/22 11:29:48;;;;;;;8.68;4.15;;;17.00;67.30;;;;;;4843730;29;20569;-62
2021/04/22 11:32:22;;;;;;;8.80;4.45;;;16.90;68.30;;;;;;4843503;29;20050;-62
2021/04/22 11:34:50;;;;;;;10.70;4.85;;;16.80;73.40;;;;;;4851416;29;20107;-62
2021/04/22 11:37:24;;;;;;;9.35;5.30;;;16.40;72.40;;;;;;4862445;29;20049;-62
2021/04/22 11:39:51;;;;;;;9.75;4.80;;;16.20;74.30;;;;;;4863396;29;20055;-62
2021/04/22 11:42:19;;;;;;;7.82;4.38;;;16.20;74.50;;;;;;4862781;29;20057;-62
2021/04/22 11:44:52;;;;;;;9.45;4.70;;;16.30;75.30;;;;;;4845317;29;20045;-61
2021/04/22 11:47:24;;;;;;;7.40;3.92;;;16.50;72.70;;;;;;4862386;29;20049;-61
2021/04/22 11:50:15;;;;;;;10.10;4.70;;;16.90;68.80;;;;;;4843051;29;20129;-61
2021/04/22 11:53:04;;;;;;;8.70;3.88;;;17.40;66.20;;;;;;4859774;29;20065;-61
2021/04/22 11:55:36;;;;;;;3.10;1.40;;;17.60;66.00;;;;;;4857429;29;20608;-62
2021/04/22 11:58:11;;;;;;;6.70;2.00;;;18.10;57.00;;;;;;4864008;29;20081;-62
2021/04/22 12:00:51;;;;;;;2.13;1.40;;;18.40;56.60;;;;;;4844315;29;20041;-62
2021/04/22 12:03:26;;;;;;;3.35;1.08;;;18.80;54.00;;;;;;4851744;29;20053;-62
2021/04/22 12:05:55;;;;;;;2.20;1.27;;;19.20;55.90;;;;;;4856498;29;20048;-62
2021/04/22 12:08:34;;;;;;;3.60;1.40;;;19.10;51.00;;;;;;4834062;29;20038;-62
2021/04/22 12:11:02;;;;;;;2.70;1.58;;;18.80;52.60;;;;;;4848404;29;20075;-62
2021/04/22 12:13:30;;;;;;;4.35;2.30;;;18.60;53.70;;;;;;4832117;29;20037;-62
2021/04/22 12:15:59;;;;;;;3.83;1.52;;;18.50;54.10;;;;;;4862782;29;20660;-62
2021/04/22 12:18:28;;;;;;;4.15;1.40;;;18.20;53.20;;;;;;4864434;29;20081;-62
2021/04/22 12:21:07;;;;;;;6.18;2.13;;;18.20;53.30;;;;;;4845675;29;20490;-62
2021/04/22 12:23:37;;;;;;;4.13;1.80;;;18.40;52.00;;;;;;4858695;29;20045;-62
2021/04/22 12:26:21;;;;;;;6.22;1.70;;;18.50;53.60;;;;;;4849571;29;20482;-62
2021/04/22 12:28:58;;;;;;;4.05;1.65;;;18.80;52.30;;;;;;4857045;29;20042;-62
2021/04/22 12:31:32;;;;;;;6.43;3.03;;;19.00;48.20;;;;;;4852537;29;20089;-62
2021/04/22 12:34:18;;;;;;;2.95;1.70;;;19.30;49.60;;;;;;4852414;29;20042;-62
2021/04/22 12:37:05;;;;;;;4.60;2.47;;;19.80;50.30;;;;;;4846185;29;20049;-62
2021/04/22 12:39:56;;;;;;;3.70;1.85;;;20.10;49.70;;;;;;4853830;29;20044;-62
2021/04/22 12:42:26;;;;;;;4.88;2.58;;;20.50;48.30;;;;;;4855131;29;20198;-62
2021/04/22 12:45:20;;;;;;;4.53;2.15;;;20.50;47.00;;;;;;4846103;29;20181;-62
2021/04/22 12:47:54;;;;;;;3.53;1.67;;;20.80;46.60;;;;;;4854495;29;20060;-62
2021/04/22 12:50:27;;;;;;;4.07;2.13;;;20.50;45.30;;;;;;4860801;29;20054;-62